createdAt,value
2023-04-04T00:00:28.450Z,-0.90
2023-04-04T00:02:55.726Z,-0.86
2023-04-04T00:05:22.955Z,-0.84
2023-04-04T00:07:50.575Z,-0.77
2023-04-04T00:10:17.563Z,-0.86
2023-04-04T00:12:44.673Z,-0.87
2023-04-04T00:15:12.645Z,-0.88
2023-04-04T00:17:39.501Z,-0.81
2023-04-04T00:20:07.815Z,-0.82
2023-04-04T00:22:34.877Z,-0.80
2023-04-04T00:25:01.980Z,-0.87
2023-04-04T00:27:29.907Z,-0.92
2023-04-04T00:29:57.291Z,-0.90
2023-04-04T00:32:24.343Z,-0.91
2023-04-04T00:34:54.733Z,-0.91
2023-04-04T00:37:22.108Z,-0.87
2023-04-04T00:39:50.086Z,-0.86
2023-04-04T00:42:18.152Z,-0.82
2023-04-04T00:44:45.096Z,-0.83
2023-04-04T00:47:12.948Z,-0.82
2023-04-04T00:49:40.307Z,-0.73
2023-04-04T00:52:07.941Z,-0.75
2023-04-04T00:54:35.526Z,-0.75
2023-04-04T00:57:03.238Z,-0.72
2023-04-04T00:59:31.393Z,-0.71
2023-04-04T01:01:58.528Z,-0.66
2023-04-04T01:04:25.734Z,-0.69
2023-04-04T01:06:53.058Z,-0.65
2023-04-04T01:09:21.743Z,-0.67
2023-04-04T01:11:48.938Z,-0.68
2023-04-04T01:14:15.933Z,-0.67
2023-04-04T01:16:42.844Z,-0.67
2023-04-04T01:19:12.382Z,-0.70
2023-04-04T01:21:40.173Z,-0.72
2023-04-04T01:24:09.124Z,-0.73
2023-04-04T01:26:44.527Z,-0.72
2023-04-04T01:29:12.657Z,-0.70
2023-04-04T01:31:43.804Z,-0.65
2023-04-04T01:34:20.312Z,-0.64
2023-04-04T01:37:05.989Z,-0.65
2023-04-04T01:39:45.088Z,-0.71
2023-04-04T01:42:14.833Z,-0.80
2023-04-04T01:44:44.433Z,-0.79
2023-04-04T01:47:13.285Z,-0.77
2023-04-04T01:49:41.512Z,-0.82
2023-04-04T01:52:10.044Z,-0.82
2023-04-04T01:54:38.173Z,-0.78
2023-04-04T01:57:05.077Z,-0.80
2023-04-04T01:59:33.588Z,-0.80
2023-04-04T02:02:01.204Z,-0.78
2023-04-04T02:04:28.368Z,-0.83
2023-04-04T02:06:57.004Z,-0.85
2023-04-04T02:09:24.217Z,-0.88
2023-04-04T02:11:51.388Z,-0.91
2023-04-04T02:14:19.605Z,-0.94
2023-04-04T02:16:46.527Z,-0.93
2023-04-04T02:19:13.187Z,-0.91
2023-04-04T02:21:39.950Z,-0.93
2023-04-04T02:24:07.054Z,-0.90
2023-04-04T02:26:34.002Z,-0.93
2023-04-04T02:29:00.932Z,-0.85
2023-04-04T02:31:28.132Z,-0.84
2023-04-04T02:33:56.206Z,-0.90
2023-04-04T02:36:23.967Z,-0.84
2023-04-04T02:38:52.573Z,-0.90
2023-04-04T02:41:21.971Z,-0.96
2023-04-04T02:43:49.910Z,-0.94
2023-04-04T02:46:21.627Z,-0.95
2023-04-04T02:48:54.661Z,-0.96
2023-04-04T02:51:21.665Z,-0.94
2023-04-04T02:53:48.526Z,-1.00
2023-04-04T02:56:21.360Z,-0.96
2023-04-04T02:58:48.585Z,-1.05
2023-04-04T03:01:15.898Z,-1.10
2023-04-04T03:03:43.391Z,-1.13
2023-04-04T03:06:11.660Z,-1.13
2023-04-04T03:08:39.143Z,-1.16
2023-04-04T03:11:06.325Z,-1.16
2023-04-04T03:13:34.048Z,-1.15
2023-04-04T03:16:08.955Z,-1.15
2023-04-04T03:18:48.786Z,-1.20
2023-04-04T03:21:18.977Z,-1.18
2023-04-04T03:23:46.378Z,-1.24
2023-04-04T03:26:13.436Z,-1.29
2023-04-04T03:28:40.497Z,-1.35
2023-04-04T03:31:08.813Z,-1.38
2023-04-04T03:33:39.697Z,-1.36
2023-04-04T03:36:13.821Z,-1.39
2023-04-04T03:38:41.304Z,-1.39
2023-04-04T03:41:09.846Z,-1.42
2023-04-04T03:43:37.664Z,-1.46
2023-04-04T03:46:06.237Z,-1.47
2023-04-04T03:48:34.669Z,-1.51
2023-04-04T03:51:05.007Z,-1.52
2023-04-04T03:53:32.524Z,-1.56
2023-04-04T03:55:59.991Z,-1.49
2023-04-04T03:58:29.084Z,-1.53
2023-04-04T04:00:56.708Z,-1.59
2023-04-04T04:03:27.300Z,-1.57
2023-04-04T04:05:55.571Z,-1.56
2023-04-04T04:08:24.055Z,-1.63
2023-04-04T04:10:52.387Z,-1.72
2023-04-04T04:13:19.413Z,-1.74
2023-04-04T04:15:47.133Z,-1.75
2023-04-04T04:18:20.288Z,-1.75
2023-04-04T04:20:48.526Z,-1.74
2023-04-04T04:23:15.758Z,-1.78
2023-04-04T04:25:43.762Z,-1.75
2023-04-04T04:28:17.371Z,-1.79
2023-04-04T04:30:45.097Z,-1.82
2023-04-04T04:33:13.577Z,-1.80
2023-04-04T04:36:04.063Z,-1.84
2023-04-04T04:38:40.258Z,-1.86
2023-04-04T04:41:07.310Z,-1.88
2023-04-04T04:43:41.970Z,-1.76
2023-04-04T04:46:08.920Z,-1.73
2023-04-04T04:48:37.051Z,-1.70
2023-04-04T04:51:06.281Z,-1.74
2023-04-04T04:53:53.922Z,-1.69
2023-04-04T04:56:21.716Z,-1.61
2023-04-04T04:58:51.751Z,-1.57
2023-04-04T05:01:26.844Z,-1.64
2023-04-04T05:03:55.832Z,-1.57
2023-04-04T05:06:31.054Z,-1.59
2023-04-04T05:08:59.127Z,-1.54
2023-04-04T05:11:33.765Z,-1.51
2023-04-04T05:14:03.459Z,-1.60
2023-04-04T05:16:35.996Z,-1.56
2023-04-04T05:19:03.751Z,-1.51
2023-04-04T05:21:36.481Z,-1.52
2023-04-04T05:24:05.453Z,-1.53
2023-04-04T05:26:33.279Z,-1.53
2023-04-04T05:29:00.958Z,-1.52
2023-04-04T05:31:29.860Z,-1.49
2023-04-04T05:33:58.156Z,-1.50
2023-04-04T05:36:31.143Z,-1.52
2023-04-04T05:39:07.215Z,-1.47
2023-04-04T05:41:39.773Z,-1.49
2023-04-04T05:44:16.770Z,-1.53
2023-04-04T05:46:44.235Z,-1.56
2023-04-04T05:49:11.448Z,-1.53
2023-04-04T05:51:43.024Z,-1.42
2023-04-04T05:54:15.770Z,-1.37
2023-04-04T05:56:43.599Z,-1.37
2023-04-04T05:59:23.112Z,-1.23
2023-04-04T06:02:02.158Z,-1.21
2023-04-04T06:04:30.204Z,-1.25
2023-04-04T06:06:59.062Z,-1.23
2023-04-04T06:09:26.321Z,-1.22
2023-04-04T06:11:53.086Z,-1.23
2023-04-04T06:14:19.791Z,-1.16
2023-04-04T06:16:47.302Z,-1.00
2023-04-04T06:19:15.409Z,-0.92
2023-04-04T06:21:42.466Z,-0.88
2023-04-04T06:24:11.440Z,-0.72
2023-04-04T06:26:39.561Z,-0.77
2023-04-04T06:29:06.893Z,-0.72
2023-04-04T06:31:37.798Z,-0.63
2023-04-04T06:34:12.597Z,-0.68
2023-04-04T06:36:55.116Z,-0.73
2023-04-04T06:39:25.789Z,-0.76
2023-04-04T06:41:54.195Z,-0.56
2023-04-04T06:44:26.298Z,-0.46
2023-04-04T06:46:54.104Z,-0.50
2023-04-04T06:49:21.048Z,-0.53
2023-04-04T06:51:50.945Z,-0.42
2023-04-04T06:54:18.214Z,-0.39
2023-04-04T06:56:45.370Z,-0.41
2023-04-04T06:59:12.790Z,-0.47
2023-04-04T07:01:39.904Z,-0.28
2023-04-04T07:04:07.735Z,-0.14
2023-04-04T07:06:34.658Z,-0.21
2023-04-04T07:09:01.869Z,-0.26
2023-04-04T07:11:29.822Z,-0.31
2023-04-04T07:13:57.655Z,-0.35
2023-04-04T07:16:25.129Z,-0.26
2023-04-04T07:18:52.796Z,-0.17
2023-04-04T07:21:21.194Z,-0.35
2023-04-04T07:23:48.800Z,-0.50
2023-04-04T07:26:15.949Z,-0.40
2023-04-04T07:28:43.221Z,-0.32
2023-04-04T07:31:10.642Z,-0.29
2023-04-04T07:33:37.827Z,-0.04
2023-04-04T07:36:05.102Z,-0.10
2023-04-04T07:38:31.847Z,-0.26
2023-04-04T07:40:59.060Z,-0.23
2023-04-04T07:43:26.103Z,-0.18
2023-04-04T07:45:54.838Z,-0.33
2023-04-04T07:48:23.028Z,-0.25
2023-04-04T07:50:49.917Z,-0.09
2023-04-04T07:53:16.704Z,-0.02
2023-04-04T07:55:43.762Z,0.12
2023-04-04T07:58:10.788Z,0.26
2023-04-04T08:00:38.042Z,0.24
2023-04-04T08:03:05.135Z,0.27
2023-04-04T08:05:32.032Z,0.07
2023-04-04T08:07:58.786Z,0.27
2023-04-04T08:10:25.505Z,0.15
2023-04-04T08:12:53.320Z,0.02
2023-04-04T08:15:20.671Z,-0.12
2023-04-04T08:17:47.699Z,-0.01
2023-04-04T08:20:14.425Z,0.14
2023-04-04T08:22:42.247Z,0.23
2023-04-04T08:25:10.810Z,0.24
2023-04-04T08:27:40.064Z,0.27
2023-04-04T08:30:07.425Z,0.43
2023-04-04T08:32:34.180Z,0.27
2023-04-04T08:35:01.129Z,-0.04
2023-04-04T08:37:29.410Z,-0.15
2023-04-04T08:39:56.131Z,-0.08
2023-04-04T08:42:23.301Z,-0.13
2023-04-04T08:44:53.654Z,-0.29
2023-04-04T08:47:21.385Z,-0.15
2023-04-04T08:49:49.437Z,-0.07
2023-04-04T08:52:19.349Z,0.07
2023-04-04T08:54:46.585Z,0.27
2023-04-04T08:57:13.556Z,0.47
2023-04-04T08:59:40.457Z,0.53
2023-04-04T09:02:10.425Z,0.47
2023-04-04T09:04:37.731Z,0.82
2023-04-04T09:07:05.864Z,1.28
2023-04-04T09:09:34.168Z,1.62
2023-04-04T09:12:01.552Z,1.73
2023-04-04T09:14:30.409Z,1.36
2023-04-04T09:16:57.613Z,1.47
2023-04-04T09:19:26.252Z,1.41
2023-04-04T09:21:53.589Z,1.63
2023-04-04T09:24:20.353Z,1.60
2023-04-04T09:26:52.704Z,1.80
2023-04-04T09:29:22.820Z,2.08
2023-04-04T09:31:50.504Z,2.31
2023-04-04T09:34:18.513Z,2.49
2023-04-04T09:36:46.128Z,2.64
2023-04-04T09:39:16.597Z,2.31
2023-04-04T09:41:44.859Z,2.08
2023-04-04T09:44:13.260Z,1.93
2023-04-04T09:46:40.915Z,1.58
2023-04-04T09:49:13.319Z,1.65
2023-04-04T09:51:42.947Z,1.67
2023-04-04T09:54:18.610Z,1.69
2023-04-04T09:56:53.506Z,1.84
2023-04-04T09:59:20.363Z,1.83
2023-04-04T10:01:47.400Z,1.70
2023-04-04T10:04:15.216Z,1.34
2023-04-04T10:06:43.458Z,1.46
2023-04-04T10:09:10.204Z,1.69
2023-04-04T10:11:38.655Z,2.02
2023-04-04T10:14:05.417Z,1.92
2023-04-04T10:16:37.142Z,2.34
2023-04-04T10:19:09.742Z,2.54
2023-04-04T10:21:36.822Z,2.83
2023-04-04T10:24:09.290Z,2.89
2023-04-04T10:26:37.338Z,2.96
2023-04-04T10:29:06.190Z,2.87
2023-04-04T10:31:33.490Z,2.73
2023-04-04T10:34:38.972Z,2.46
2023-04-04T10:37:13.599Z,2.49
2023-04-04T10:39:58.514Z,2.67
2023-04-04T10:42:27.343Z,2.64
2023-04-04T10:44:54.200Z,2.47
2023-04-04T10:47:22.455Z,2.59
2023-04-04T10:49:50.861Z,2.93
2023-04-04T10:52:20.683Z,2.67
2023-04-04T10:54:50.976Z,2.28
2023-04-04T10:57:18.771Z,2.15
2023-04-04T11:00:08.404Z,1.81
2023-04-04T11:02:47.712Z,1.87
2023-04-04T11:05:21.255Z,2.14
2023-04-04T11:10:32.091Z,2.40
2023-04-04T11:13:12.380Z,2.59
2023-04-04T11:15:53.781Z,1.76
2023-04-04T11:18:30.587Z,1.48
2023-04-04T11:21:03.733Z,1.55
2023-04-04T11:24:02.300Z,1.77
2023-04-04T11:26:29.215Z,1.69
2023-04-04T11:28:57.467Z,1.90
2023-04-04T11:31:30.007Z,2.09
2023-04-04T11:33:58.056Z,2.37
2023-04-04T11:36:45.750Z,2.58
2023-04-04T11:39:17.019Z,2.73
2023-04-04T11:42:07.063Z,2.52
2023-04-04T11:44:40.659Z,2.26
2023-04-04T11:47:09.612Z,1.90
2023-04-04T11:49:38.836Z,1.75
2023-04-04T11:52:07.484Z,2.00
2023-04-04T11:54:35.387Z,2.30
2023-04-04T11:57:03.742Z,2.78
2023-04-04T11:59:30.958Z,3.08
2023-04-04T12:01:58.249Z,3.26
2023-04-04T12:04:26.293Z,3.70
2023-04-04T12:06:55.023Z,3.97
2023-04-04T12:09:24.279Z,4.11
2023-04-04T12:11:51.895Z,4.05
2023-04-04T12:14:20.972Z,4.00
2023-04-04T12:16:49.318Z,3.83
2023-04-04T12:19:17.253Z,3.98
2023-04-04T12:21:44.710Z,3.94
2023-04-04T12:24:11.851Z,3.96
2023-04-04T12:26:40.967Z,3.82
2023-04-04T12:29:12.219Z,3.87
2023-04-04T12:31:41.628Z,3.92
2023-04-04T12:34:19.317Z,3.99
2023-04-04T12:36:51.577Z,3.86
2023-04-04T12:39:20.248Z,3.94
2023-04-04T12:41:47.809Z,3.75
2023-04-04T12:44:35.744Z,3.41
2023-04-04T12:47:04.778Z,3.64
2023-04-04T12:49:43.565Z,3.75
2023-04-04T12:52:21.699Z,3.87
2023-04-04T12:54:59.169Z,3.98
2023-04-04T12:57:34.211Z,4.02
2023-04-04T13:00:03.046Z,3.98
2023-04-04T13:02:29.873Z,3.79
2023-04-04T13:04:59.057Z,3.74
2023-04-04T13:07:32.662Z,3.81
2023-04-04T13:10:02.836Z,3.99
2023-04-04T13:12:59.622Z,4.22
2023-04-04T13:15:49.438Z,4.33
2023-04-04T13:18:22.330Z,4.26
2023-04-04T13:20:50.140Z,4.41
2023-04-04T13:23:17.334Z,4.50
2023-04-04T13:25:44.108Z,4.53
2023-04-04T13:28:14.513Z,4.41
2023-04-04T13:30:46.983Z,4.27
2023-04-04T13:33:14.166Z,4.39
2023-04-04T13:35:44.408Z,4.43
2023-04-04T13:38:11.841Z,4.63
2023-04-04T13:40:38.840Z,4.98
2023-04-04T13:43:06.153Z,5.17
2023-04-04T13:45:34.416Z,5.24
2023-04-04T13:48:02.575Z,5.26
2023-04-04T13:50:32.947Z,4.95
2023-04-04T13:53:00.425Z,4.77
2023-04-04T13:55:27.975Z,4.73
2023-04-04T13:57:55.460Z,4.45
2023-04-04T14:00:23.192Z,4.14
2023-04-04T14:02:53.653Z,4.11
2023-04-04T14:05:22.803Z,4.06
2023-04-04T14:07:50.353Z,3.53
2023-04-04T14:10:18.125Z,3.67
2023-04-04T14:12:44.969Z,3.66
2023-04-04T14:15:12.458Z,3.83
2023-04-04T14:17:39.923Z,3.98
2023-04-04T14:20:07.918Z,4.02
2023-04-04T14:22:34.747Z,3.97
2023-04-04T14:25:01.839Z,4.06
2023-04-04T14:27:28.760Z,4.11
2023-04-04T14:29:55.471Z,4.19
2023-04-04T14:32:22.315Z,4.37
2023-04-04T14:34:49.159Z,4.42
2023-04-04T14:37:17.149Z,4.22
2023-04-04T14:39:43.867Z,3.55
2023-04-04T14:42:10.594Z,3.66
2023-04-04T14:44:37.341Z,3.87
2023-04-04T14:47:04.157Z,3.77
2023-04-04T14:49:31.446Z,3.79
2023-04-04T14:51:58.198Z,3.69
2023-04-04T14:54:25.062Z,3.88
2023-04-04T14:56:52.740Z,3.81
2023-04-04T14:59:19.507Z,3.92
2023-04-04T15:01:46.649Z,3.87
2023-04-04T15:04:13.598Z,3.86
2023-04-04T15:06:40.811Z,3.80
2023-04-04T15:09:09.393Z,3.67
2023-04-04T15:11:36.669Z,3.53
2023-04-04T15:14:04.154Z,3.00
2023-04-04T15:16:33.209Z,3.17
2023-04-04T15:19:00.939Z,3.22
2023-04-04T15:21:31.739Z,3.29
2023-04-04T15:23:58.604Z,3.30
2023-04-04T15:26:26.013Z,3.36
2023-04-04T15:28:52.895Z,3.28
2023-04-04T15:31:20.910Z,3.21
2023-04-04T15:33:48.495Z,3.12
2023-04-04T15:36:15.556Z,3.12
2023-04-04T15:38:42.419Z,3.12
2023-04-04T15:41:09.893Z,3.21
2023-04-04T15:43:37.237Z,3.20
2023-04-04T15:46:04.662Z,3.21
2023-04-04T15:48:31.583Z,3.26
2023-04-04T15:51:02.570Z,3.30
2023-04-04T15:53:30.702Z,3.42
2023-04-04T15:55:58.572Z,3.38
2023-04-04T15:58:26.156Z,3.37
2023-04-04T16:00:53.203Z,3.28
2023-04-04T16:03:20.669Z,3.33
2023-04-04T16:05:47.451Z,3.36
2023-04-04T16:08:14.929Z,3.44
2023-04-04T16:10:44.085Z,3.50
2023-04-04T16:13:11.585Z,3.49
2023-04-04T16:15:38.744Z,3.50
2023-04-04T16:18:05.627Z,3.60
2023-04-04T16:20:32.604Z,3.75
2023-04-04T16:22:59.516Z,3.85
2023-04-04T16:25:26.403Z,3.80
2023-04-04T16:27:53.278Z,3.79
2023-04-04T16:30:20.120Z,3.73
2023-04-04T16:32:47.214Z,3.71
2023-04-04T16:35:14.458Z,3.65
2023-04-04T16:37:41.192Z,3.54
2023-04-04T16:40:08.990Z,3.58
2023-04-04T16:42:35.841Z,3.49
2023-04-04T16:45:03.587Z,3.37
2023-04-04T16:47:30.707Z,3.27
2023-04-04T16:49:57.600Z,3.16
2023-04-04T16:52:24.307Z,3.02
2023-04-04T16:54:51.068Z,2.95
2023-04-04T16:57:17.764Z,2.88
2023-04-04T16:59:44.510Z,2.76
2023-04-04T17:02:11.251Z,2.72
2023-04-04T17:04:41.981Z,2.70
2023-04-04T17:07:08.924Z,2.61
2023-04-04T17:09:35.882Z,2.51
2023-04-04T17:12:03.482Z,2.36
2023-04-04T17:14:30.522Z,2.25
2023-04-04T17:17:03.012Z,2.20
2023-04-04T17:19:31.661Z,2.08
2023-04-04T17:21:59.119Z,1.92
2023-04-04T17:24:27.356Z,1.88
2023-04-04T17:26:56.116Z,1.83
2023-04-04T17:29:27.079Z,1.75
2023-04-04T17:31:55.704Z,1.79
2023-04-04T17:34:23.133Z,1.68
2023-04-04T17:36:50.838Z,1.63
2023-04-04T17:39:17.748Z,1.72
2023-04-04T17:41:47.555Z,1.72
2023-04-04T17:44:15.435Z,1.54
2023-04-04T17:46:42.648Z,1.49
2023-04-04T17:49:09.372Z,1.50
2023-04-04T17:51:36.270Z,1.42
2023-04-04T17:54:03.880Z,1.33
2023-04-04T17:56:30.836Z,1.16
2023-04-04T17:58:57.913Z,1.14
2023-04-04T18:01:26.352Z,1.11
2023-04-04T18:03:53.133Z,1.11
2023-04-04T18:06:19.877Z,1.08
2023-04-04T18:08:46.647Z,1.05
2023-04-04T18:11:13.366Z,1.08
2023-04-04T18:13:40.233Z,1.04
2023-04-04T18:16:07.849Z,0.99
2023-04-04T18:18:35.684Z,0.89
2023-04-04T18:21:02.672Z,0.82
2023-04-04T18:23:29.307Z,0.87
2023-04-04T18:25:56.311Z,0.86
2023-04-04T18:28:23.021Z,0.87
2023-04-04T18:30:49.714Z,0.93
2023-04-04T18:33:16.637Z,0.94
2023-04-04T18:35:43.428Z,0.91
2023-04-04T18:38:10.505Z,0.98
2023-04-04T18:40:37.356Z,0.91
2023-04-04T18:43:04.268Z,0.94
2023-04-04T18:45:40.309Z,0.94
2023-04-04T18:48:09.033Z,0.97
2023-04-04T18:50:36.054Z,0.98
2023-04-04T18:53:02.838Z,1.05
2023-04-04T18:55:29.765Z,1.05
2023-04-04T18:57:57.530Z,1.04
2023-04-04T19:00:24.630Z,0.98
2023-04-04T19:02:51.871Z,0.95
2023-04-04T19:05:24.153Z,0.96
2023-04-04T19:07:54.233Z,0.93
2023-04-04T19:10:21.578Z,0.84
2023-04-04T19:12:48.316Z,0.79
2023-04-04T19:15:15.284Z,0.77
2023-04-04T19:17:42.770Z,0.77
2023-04-04T19:20:10.601Z,0.83
2023-04-04T19:22:37.324Z,0.82
2023-04-04T19:25:04.232Z,0.82
2023-04-04T19:27:30.988Z,0.88
2023-04-04T19:29:57.831Z,0.89
2023-04-04T19:32:27.397Z,0.84
2023-04-04T19:34:54.148Z,0.87
2023-04-04T19:37:20.995Z,0.88
2023-04-04T19:39:48.820Z,0.85
2023-04-04T19:42:15.714Z,0.86
2023-04-04T19:44:42.478Z,0.85
2023-04-04T19:47:10.432Z,0.78
2023-04-04T19:49:39.742Z,0.85
2023-04-04T19:52:07.050Z,0.79
2023-04-04T19:54:39.027Z,0.79
2023-04-04T19:57:15.794Z,0.80
2023-04-04T20:00:03.916Z,0.84
2023-04-04T20:02:33.574Z,0.88
2023-04-04T20:05:01.163Z,0.83
2023-04-04T20:07:29.258Z,0.84
2023-04-04T20:09:57.014Z,0.77
2023-04-04T20:12:24.847Z,0.81
2023-04-04T20:14:55.736Z,0.75
2023-04-04T20:17:24.177Z,0.74
2023-04-04T20:19:51.369Z,0.69
2023-04-04T20:22:19.631Z,0.67
2023-04-04T20:24:47.630Z,0.66
2023-04-04T20:27:25.490Z,0.62
2023-04-04T20:29:53.700Z,0.61
2023-04-04T20:32:20.774Z,0.62
2023-04-04T20:34:50.870Z,0.61
2023-04-04T20:37:24.428Z,0.60
2023-04-04T20:40:13.011Z,0.60
2023-04-04T20:42:41.465Z,0.65
2023-04-04T20:45:08.900Z,0.65
2023-04-04T20:47:46.645Z,0.61
2023-04-04T20:50:23.162Z,0.62
2023-04-04T20:52:59.546Z,0.62
2023-04-04T20:55:30.119Z,0.63
2023-04-04T20:58:01.838Z,0.62
2023-04-04T21:00:30.922Z,0.61
2023-04-04T21:02:59.782Z,0.62
2023-04-04T21:05:28.203Z,0.63
2023-04-04T21:07:56.309Z,0.62
2023-04-04T21:10:43.755Z,0.68
2023-04-04T21:13:11.043Z,0.67
2023-04-04T21:15:39.353Z,0.62
2023-04-04T21:18:10.406Z,0.60
2023-04-04T21:20:49.748Z,0.60
2023-04-04T21:23:39.370Z,0.48
2023-04-04T21:26:08.449Z,0.51
2023-04-04T21:28:36.737Z,0.52
2023-04-04T21:31:14.076Z,0.54
2023-04-04T21:33:44.903Z,0.59
2023-04-04T21:36:23.967Z,0.55
2023-04-04T21:38:52.182Z,0.57
2023-04-04T21:41:32.983Z,0.61
2023-04-04T21:44:01.733Z,0.60
2023-04-04T21:46:32.172Z,0.62
2023-04-04T21:48:59.897Z,0.57
2023-04-04T21:51:27.319Z,0.63
2023-04-04T21:53:54.898Z,0.68
2023-04-04T21:56:27.550Z,0.73
2023-04-04T21:58:55.688Z,0.80
2023-04-04T22:01:22.755Z,0.77
2023-04-04T22:03:49.556Z,0.75
2023-04-04T22:06:16.443Z,0.71
2023-04-04T22:08:43.241Z,0.70
2023-04-04T22:11:13.678Z,0.68
2023-04-04T22:13:46.976Z,0.70
2023-04-04T22:16:18.400Z,0.68
2023-04-04T22:18:51.999Z,0.72
2023-04-04T22:21:25.953Z,0.73
2023-04-04T22:23:54.053Z,0.70
2023-04-04T22:26:29.041Z,0.71
2023-04-04T22:28:56.920Z,0.70
2023-04-04T22:31:23.881Z,0.69
2023-04-04T22:33:50.653Z,0.70
2023-04-04T22:36:17.665Z,0.68
2023-04-04T22:38:44.513Z,0.65
2023-04-04T22:41:11.194Z,0.72
2023-04-04T22:43:37.979Z,0.68
2023-04-04T22:46:04.765Z,0.72
2023-04-04T22:48:31.477Z,0.68
2023-04-04T22:50:58.992Z,0.67
2023-04-04T22:53:26.862Z,0.68
2023-04-04T22:55:58.497Z,0.64
2023-04-04T22:58:26.123Z,0.63
2023-04-04T23:00:53.705Z,0.64
2023-04-04T23:03:21.737Z,0.62
2023-04-04T23:05:49.336Z,0.59
2023-04-04T23:08:16.509Z,0.61
2023-04-04T23:10:43.821Z,0.61
2023-04-04T23:13:10.695Z,0.59
2023-04-04T23:15:38.345Z,0.62
2023-04-04T23:18:06.166Z,0.59
2023-04-04T23:20:33.428Z,0.58
2023-04-04T23:23:01.130Z,0.55
2023-04-04T23:25:28.433Z,0.50
2023-04-04T23:27:55.357Z,0.45
2023-04-04T23:30:24.280Z,0.44
2023-04-04T23:32:51.299Z,0.45
2023-04-04T23:35:18.759Z,0.54
2023-04-04T23:37:46.604Z,0.43
2023-04-04T23:40:14.059Z,0.34
2023-04-04T23:42:42.256Z,0.23
2023-04-04T23:45:09.907Z,0.32
2023-04-04T23:47:37.069Z,0.23
2023-04-04T23:50:04.219Z,0.21
2023-04-04T23:52:31.192Z,0.19
2023-04-04T23:54:58.345Z,0.19
2023-04-04T23:57:25.263Z,0.17
2023-04-04T23:59:52.394Z,0.13
